createdAt,value
2022-10-30T00:01:07.797Z,29.15
2022-10-30T00:03:34.746Z,34.05
2022-10-30T00:06:08.361Z,30.85
2022-10-30T00:08:35.381Z,28.60
2022-10-30T00:11:11.909Z,34.67
2022-10-30T00:13:39.644Z,34.00
2022-10-30T00:16:08.894Z,37.42
2022-10-30T00:18:38.487Z,29.63
2022-10-30T00:21:11.983Z,34.22
2022-10-30T00:23:40.975Z,35.47
2022-10-30T00:26:08.209Z,36.90
2022-10-30T00:28:35.054Z,35.25
2022-10-30T00:31:04.623Z,32.50
2022-10-30T00:33:32.148Z,32.70
2022-10-30T00:36:00.042Z,34.42
2022-10-30T00:38:27.218Z,32.45
2022-10-30T00:40:54.157Z,29.70
2022-10-30T00:43:39.629Z,33.42
2022-10-30T00:48:59.473Z,31.75
2022-10-30T00:51:30.120Z,26.80
2022-10-30T00:54:02.823Z,30.77
2022-10-30T00:56:30.576Z,32.70
2022-10-30T00:59:04.993Z,32.80
2022-10-30T01:01:38.934Z,35.00
2022-10-30T01:04:07.208Z,28.95
2022-10-30T01:06:40.536Z,30.98
2022-10-30T01:09:07.991Z,29.80
2022-10-30T01:11:34.936Z,31.08
2022-10-30T01:14:07.296Z,29.13
2022-10-30T01:16:46.115Z,25.38
2022-10-30T01:19:33.267Z,32.95
2022-10-30T01:22:26.953Z,34.47
2022-10-30T01:25:12.466Z,32.83
2022-10-30T01:28:25.933Z,33.10
2022-10-30T01:31:40.653Z,28.48
2022-10-30T01:34:37.548Z,29.20
2022-10-30T01:37:18.007Z,28.58
2022-10-30T01:39:45.077Z,30.52
2022-10-30T01:42:53.169Z,29.98
2022-10-30T01:45:51.957Z,33.20
2022-10-30T01:48:27.710Z,33.42
2022-10-30T01:51:20.378Z,32.65
2022-10-30T01:54:01.310Z,29.92
2022-10-30T01:57:16.142Z,33.65
2022-10-30T02:00:12.555Z,30.67
2022-10-30T02:02:48.521Z,30.17
2022-10-30T02:05:38.774Z,26.98
2022-10-30T02:08:06.243Z,30.67
2022-10-30T02:10:38.332Z,27.88
2022-10-30T02:13:05.805Z,32.15
2022-10-30T02:15:34.032Z,29.48
2022-10-30T02:18:01.553Z,23.95
2022-10-30T02:20:29.462Z,23.45
2022-10-30T02:22:59.237Z,29.63
2022-10-30T02:25:30.985Z,24.98
2022-10-30T02:27:59.049Z,29.85
2022-10-30T02:30:27.916Z,31.40
2022-10-30T02:32:54.948Z,36.25
2022-10-30T02:35:22.149Z,34.45
2022-10-30T02:37:50.390Z,28.73
2022-10-30T02:40:17.525Z,31.08
2022-10-30T02:42:44.530Z,27.67
2022-10-30T02:45:11.777Z,24.08
2022-10-30T02:47:38.595Z,25.25
2022-10-30T02:50:06.426Z,26.45
2022-10-30T02:52:34.987Z,23.58
2022-10-30T02:55:01.879Z,26.80
2022-10-30T02:57:28.783Z,26.10
2022-10-30T02:59:55.650Z,27.48
2022-10-30T03:02:22.597Z,24.45
2022-10-30T03:04:50.241Z,28.35
2022-10-30T03:07:17.273Z,28.45
2022-10-30T03:09:44.208Z,23.55
2022-10-30T03:12:11.105Z,24.67
2022-10-30T03:14:37.931Z,28.13
2022-10-30T03:17:05.124Z,29.52
2022-10-30T03:19:32.106Z,29.02
2022-10-30T03:21:58.992Z,26.58
2022-10-30T03:24:25.821Z,26.02
2022-10-30T03:26:52.720Z,25.60
2022-10-30T03:29:19.680Z,28.25
2022-10-30T03:31:46.615Z,28.48
2022-10-30T03:34:19.296Z,26.98
2022-10-30T03:36:46.136Z,27.70
2022-10-30T03:39:13.903Z,27.08
2022-10-30T03:41:43.667Z,24.67
2022-10-30T03:44:10.633Z,27.20
2022-10-30T03:46:38.379Z,27.58
2022-10-30T03:49:18.908Z,28.83
2022-10-30T03:51:45.836Z,30.05
2022-10-30T03:54:12.792Z,33.15
2022-10-30T03:56:39.611Z,30.27
2022-10-30T03:59:08.785Z,32.80
2022-10-30T04:01:39.325Z,31.85
2022-10-30T04:04:06.286Z,29.08
2022-10-30T04:06:33.169Z,25.48
2022-10-30T04:09:00.018Z,30.20
2022-10-30T04:11:33.209Z,25.00
2022-10-30T04:14:00.095Z,28.17
2022-10-30T04:16:26.978Z,27.05
2022-10-30T04:18:53.995Z,31.10
2022-10-30T04:21:20.911Z,27.50
2022-10-30T04:23:49.444Z,29.83
2022-10-30T04:26:17.491Z,25.35
2022-10-30T04:28:48.227Z,24.33
2022-10-30T04:31:15.018Z,26.08
2022-10-30T04:33:42.965Z,26.48
2022-10-30T04:36:10.560Z,19.55
2022-10-30T04:38:37.609Z,28.65
2022-10-30T04:41:06.889Z,28.35
2022-10-30T04:43:52.274Z,36.58
2022-10-30T04:46:19.133Z,38.55
2022-10-30T04:48:45.959Z,35.45
2022-10-30T04:51:13.968Z,29.73
2022-10-30T04:53:40.825Z,26.77
2022-10-30T04:56:10.602Z,31.55
2022-10-30T04:58:38.147Z,30.35
2022-10-30T05:01:07.241Z,28.70
2022-10-30T05:03:35.387Z,34.40
2022-10-30T05:06:28.098Z,29.75
2022-10-30T05:08:55.797Z,26.25
2022-10-30T05:11:31.979Z,28.50
2022-10-30T05:13:58.861Z,30.65
2022-10-30T05:16:26.221Z,28.00
2022-10-30T05:18:54.614Z,32.03
2022-10-30T05:21:21.954Z,29.70
2022-10-30T05:23:48.981Z,32.28
2022-10-30T05:26:16.132Z,37.67
2022-10-30T05:28:43.086Z,31.42
2022-10-30T05:31:10.140Z,27.42
2022-10-30T05:33:52.167Z,27.25
2022-10-30T05:36:19.249Z,28.35
2022-10-30T05:38:46.712Z,27.00
2022-10-30T05:41:21.805Z,29.90
2022-10-30T05:43:48.746Z,28.15
2022-10-30T05:46:15.901Z,24.92
2022-10-30T05:48:42.880Z,28.15
2022-10-30T05:51:09.749Z,36.45
2022-10-30T05:53:39.508Z,98.43
2022-10-30T05:56:06.726Z,73.78
2022-10-30T05:58:35.264Z,54.08
2022-10-30T06:01:08.264Z,49.83
2022-10-30T06:03:41.646Z,33.42
2022-10-30T06:06:08.603Z,25.75
2022-10-30T06:08:35.787Z,25.83
2022-10-30T06:11:14.312Z,23.25
2022-10-30T06:13:44.163Z,35.53
2022-10-30T06:16:12.562Z,44.10
2022-10-30T06:19:19.037Z,68.32
2022-10-30T06:21:48.287Z,48.45
2022-10-30T06:24:24.407Z,36.13
2022-10-30T06:27:11.504Z,37.30
2022-10-30T06:29:38.385Z,47.75
2022-10-30T06:32:06.897Z,52.60
2022-10-30T06:34:34.325Z,64.97
2022-10-30T06:37:01.280Z,52.90
2022-10-30T06:39:28.216Z,30.08
2022-10-30T06:42:09.508Z,28.83
2022-10-30T06:44:54.238Z,29.67
2022-10-30T06:47:21.169Z,33.03
2022-10-30T06:49:48.379Z,32.83
2022-10-30T06:52:16.083Z,30.52
2022-10-30T06:54:43.441Z,24.38
2022-10-30T06:57:37.121Z,25.30
2022-10-30T07:00:13.966Z,24.10
2022-10-30T07:03:05.826Z,24.48
2022-10-30T07:05:32.929Z,22.65
2022-10-30T07:08:03.244Z,20.30
2022-10-30T07:10:30.257Z,21.60
2022-10-30T07:13:15.996Z,24.75
2022-10-30T07:16:00.753Z,25.17
2022-10-30T07:18:34.747Z,26.43
2022-10-30T07:21:03.074Z,24.85
2022-10-30T07:23:31.422Z,26.92
2022-10-30T07:26:12.851Z,21.02
2022-10-30T07:28:45.699Z,19.20
2022-10-30T07:32:10.861Z,20.88
2022-10-30T07:35:14.278Z,23.23
2022-10-30T07:40:36.559Z,21.17
2022-10-30T07:43:13.340Z,26.08
2022-10-30T07:45:40.285Z,26.35
2022-10-30T07:48:25.683Z,25.30
2022-10-30T07:51:07.970Z,22.17
2022-10-30T07:53:34.973Z,20.80
2022-10-30T07:56:02.729Z,25.92
2022-10-30T07:58:48.608Z,26.75
2022-10-30T08:01:30.401Z,21.17
2022-10-30T08:04:05.980Z,23.85
2022-10-30T08:06:32.969Z,19.85
2022-10-30T08:08:59.776Z,26.17
2022-10-30T08:11:28.401Z,25.55
2022-10-30T08:13:57.048Z,24.05
2022-10-30T08:16:24.565Z,25.80
2022-10-30T08:18:52.298Z,23.33
2022-10-30T08:21:22.848Z,23.63
2022-10-30T08:23:57.148Z,22.73
2022-10-30T08:26:27.448Z,28.90
2022-10-30T08:28:54.393Z,27.25
2022-10-30T08:31:21.464Z,25.45
2022-10-30T08:34:05.291Z,27.10
2022-10-30T08:36:37.935Z,28.23
2022-10-30T08:39:05.060Z,28.83
2022-10-30T08:41:52.182Z,27.95
2022-10-30T08:44:20.422Z,26.27
2022-10-30T08:49:33.923Z,24.00
2022-10-30T08:52:02.106Z,30.60
2022-10-30T08:54:28.943Z,25.83
2022-10-30T08:56:56.001Z,22.67
2022-10-30T08:59:24.017Z,25.88
2022-10-30T09:01:53.450Z,26.45
2022-10-30T09:04:20.663Z,24.08
2022-10-30T09:07:07.641Z,23.30
2022-10-30T09:09:55.966Z,24.15
2022-10-30T09:12:24.525Z,23.65
2022-10-30T09:14:53.123Z,23.13
2022-10-30T09:17:20.722Z,18.83
2022-10-30T09:22:29.404Z,20.88
2022-10-30T09:24:56.429Z,24.27
2022-10-30T09:27:42.735Z,21.10
2022-10-30T09:30:12.309Z,23.90
2022-10-30T09:32:43.750Z,21.02
2022-10-30T09:35:15.696Z,21.23
2022-10-30T09:37:44.248Z,20.75
2022-10-30T09:40:52.604Z,19.95
2022-10-30T09:43:44.065Z,19.93
2022-10-30T09:46:59.463Z,19.65
2022-10-30T09:49:59.281Z,19.85
2022-10-30T09:52:51.737Z,19.60
2022-10-30T09:55:33.916Z,21.33
2022-10-30T09:58:45.402Z,21.42
2022-10-30T10:01:39.793Z,17.55
2022-10-30T10:04:27.340Z,17.27
2022-10-30T10:07:30.006Z,20.10
2022-10-30T10:10:15.503Z,20.15
2022-10-30T10:13:01.013Z,18.58
2022-10-30T10:15:48.938Z,19.05
2022-10-30T10:18:25.529Z,19.98
2022-10-30T10:20:59.201Z,20.05
2022-10-30T10:23:51.771Z,19.42
2022-10-30T10:26:54.384Z,20.88
2022-10-30T10:29:39.539Z,17.42
2022-10-30T10:32:36.563Z,17.45
2022-10-30T10:35:37.533Z,18.73
2022-10-30T10:38:16.801Z,21.45
2022-10-30T10:41:23.596Z,18.20
2022-10-30T10:44:05.659Z,19.00
2022-10-30T10:47:18.650Z,19.73
2022-10-30T10:50:08.088Z,17.40
2022-10-30T10:52:46.812Z,19.00
2022-10-30T10:55:19.716Z,20.15
2022-10-30T10:57:49.273Z,16.85
2022-10-30T11:00:23.544Z,18.23
2022-10-30T11:03:11.645Z,17.48
2022-10-30T11:06:21.422Z,18.58
2022-10-30T11:08:52.425Z,18.05
2022-10-30T11:11:19.308Z,18.52
2022-10-30T11:13:46.389Z,17.25
2022-10-30T11:16:30.602Z,17.35
2022-10-30T11:19:02.825Z,17.17
2022-10-30T11:21:39.449Z,16.88
2022-10-30T11:24:36.512Z,19.02
2022-10-30T11:27:28.543Z,18.65
2022-10-30T11:30:05.580Z,16.55
2022-10-30T11:32:34.579Z,16.30
2022-10-30T11:35:07.291Z,16.00
2022-10-30T11:37:37.813Z,17.90
2022-10-30T11:40:10.971Z,18.25
2022-10-30T11:43:03.530Z,17.98
2022-10-30T11:45:43.355Z,17.42
2022-10-30T11:48:34.225Z,17.33
2022-10-30T11:51:03.874Z,16.70
2022-10-30T11:53:47.638Z,17.02
2022-10-30T11:56:22.907Z,20.42
2022-10-30T11:58:57.863Z,18.65
2022-10-30T12:01:34.370Z,16.98
2022-10-30T12:04:26.123Z,16.88
2022-10-30T12:07:34.635Z,16.38
2022-10-30T12:10:26.575Z,19.45
2022-10-30T12:13:00.600Z,19.40
2022-10-30T12:15:40.324Z,18.52
2022-10-30T12:18:19.326Z,15.88
2022-10-30T12:20:53.561Z,18.92
2022-10-30T12:23:25.947Z,20.05
2022-10-30T12:25:57.712Z,18.55
2022-10-30T12:28:31.428Z,19.98
2022-10-30T12:31:20.986Z,18.48
2022-10-30T12:34:30.365Z,17.20
2022-10-30T12:37:20.743Z,17.02
2022-10-30T12:40:38.872Z,17.48
2022-10-30T12:43:28.244Z,17.92
2022-10-30T12:46:36.008Z,18.90
2022-10-30T12:49:36.185Z,21.90
2022-10-30T12:52:41.848Z,18.73
2022-10-30T12:55:23.431Z,21.05
2022-10-30T12:58:01.569Z,18.10
2022-10-30T13:00:41.114Z,17.63
2022-10-30T13:03:41.836Z,20.67
2022-10-30T13:06:28.209Z,18.30
2022-10-30T13:09:26.755Z,19.60
2022-10-30T13:12:14.851Z,18.95
2022-10-30T13:15:54.241Z,17.90
2022-10-30T13:18:24.568Z,24.85
2022-10-30T13:21:27.049Z,20.60
2022-10-30T13:24:12.195Z,21.25
2022-10-30T13:27:05.949Z,18.48
2022-10-30T13:30:12.260Z,19.20
2022-10-30T13:32:53.997Z,17.33
2022-10-30T13:36:19.375Z,19.25
2022-10-30T13:38:54.735Z,19.48
2022-10-30T13:41:36.887Z,18.77
2022-10-30T13:45:02.473Z,17.35
2022-10-30T13:47:50.951Z,17.98
2022-10-30T13:50:58.904Z,17.35
2022-10-30T13:53:31.661Z,19.63
2022-10-30T13:55:59.522Z,15.68
2022-10-30T13:58:47.182Z,24.20
2022-10-30T14:01:25.589Z,18.85
2022-10-30T14:04:12.981Z,21.17
2022-10-30T14:07:17.615Z,15.13
2022-10-30T14:10:07.456Z,21.00
2022-10-30T14:12:57.455Z,17.95
2022-10-30T14:15:32.050Z,18.85
2022-10-30T14:18:14.352Z,20.08
2022-10-30T14:20:57.156Z,21.15
2022-10-30T14:23:35.480Z,21.90
2022-10-30T14:26:05.187Z,18.33
2022-10-30T14:28:38.628Z,18.50
2022-10-30T14:31:32.332Z,19.35
2022-10-30T14:34:00.383Z,20.15
2022-10-30T14:36:50.315Z,18.25
2022-10-30T14:39:17.171Z,20.17
2022-10-30T14:42:34.182Z,18.88
2022-10-30T14:45:39.305Z,20.80
2022-10-30T14:48:34.055Z,20.57
2022-10-30T14:51:43.463Z,21.97
2022-10-30T14:54:35.191Z,19.83
2022-10-30T14:57:02.260Z,18.98
2022-10-30T14:59:34.787Z,23.80
2022-10-30T15:02:32.768Z,21.17
2022-10-30T15:05:42.116Z,20.45
2022-10-30T15:08:29.898Z,18.45
2022-10-30T15:11:39.520Z,21.80
2022-10-30T15:14:39.838Z,19.85
2022-10-30T15:17:27.692Z,22.98
2022-10-30T15:19:57.403Z,21.77
2022-10-30T15:25:25.473Z,20.63
2022-10-30T15:27:57.079Z,22.67
2022-10-30T15:30:27.353Z,20.00
2022-10-30T15:32:54.574Z,23.92
2022-10-30T15:35:31.029Z,24.83
2022-10-30T15:38:08.108Z,24.08
2022-10-30T15:40:37.612Z,27.33
2022-10-30T15:43:08.791Z,26.40
2022-10-30T15:45:40.616Z,25.65
2022-10-30T15:48:34.602Z,27.40
2022-10-30T15:51:07.533Z,26.77
2022-10-30T15:53:51.278Z,23.85
2022-10-30T15:57:08.308Z,24.38
2022-10-30T15:59:34.987Z,26.27
2022-10-30T16:02:02.700Z,27.25
2022-10-30T16:04:36.855Z,26.45
2022-10-30T16:07:25.567Z,24.13
2022-10-30T16:09:58.816Z,26.38
2022-10-30T16:12:35.523Z,29.00
2022-10-30T16:15:24.634Z,31.75
2022-10-30T16:18:14.663Z,25.88
2022-10-30T16:20:44.940Z,22.15
2022-10-30T16:23:14.102Z,26.63
2022-10-30T16:25:46.781Z,30.42
2022-10-30T16:28:34.211Z,29.98
2022-10-30T16:31:08.257Z,27.67
2022-10-30T16:33:37.274Z,28.03
2022-10-30T16:36:07.063Z,26.50
2022-10-30T16:38:37.334Z,23.70
2022-10-30T16:41:13.702Z,26.40
2022-10-30T16:43:49.553Z,29.75
2022-10-30T16:46:16.362Z,23.05
2022-10-30T16:48:57.873Z,27.00
2022-10-30T16:51:25.225Z,26.75
2022-10-30T16:53:53.350Z,26.90
2022-10-30T16:56:28.998Z,26.48
2022-10-30T16:59:07.876Z,29.30
2022-10-30T17:01:36.522Z,27.73
2022-10-30T17:04:04.688Z,32.13
2022-10-30T17:06:45.712Z,30.83
2022-10-30T17:09:27.536Z,34.63
2022-10-30T17:12:14.737Z,36.15
2022-10-30T17:15:05.861Z,28.40
2022-10-30T17:17:39.283Z,34.45
2022-10-30T17:20:23.757Z,32.83
2022-10-30T17:23:14.232Z,32.72
2022-10-30T17:25:41.334Z,31.77
2022-10-30T17:28:34.654Z,30.23
2022-10-30T17:31:38.134Z,30.50
2022-10-30T17:34:18.267Z,28.40
2022-10-30T17:36:48.468Z,31.33
2022-10-30T17:39:15.973Z,32.67
2022-10-30T17:41:43.591Z,37.90
2022-10-30T17:44:23.501Z,30.83
2022-10-30T17:46:52.572Z,30.77
2022-10-30T17:49:30.174Z,32.28
2022-10-30T17:51:57.382Z,30.48
2022-10-30T17:54:25.021Z,36.10
2022-10-30T17:56:52.613Z,39.33
2022-10-30T17:59:19.750Z,32.72
2022-10-30T18:01:48.943Z,36.25
2022-10-30T18:04:20.879Z,36.85
2022-10-30T18:06:49.014Z,37.17
2022-10-30T18:09:16.220Z,35.22
2022-10-30T18:11:43.203Z,39.05
2022-10-30T18:14:12.011Z,39.13
2022-10-30T18:16:39.328Z,36.00
2022-10-30T18:19:11.349Z,35.33
2022-10-30T18:21:38.579Z,37.78
2022-10-30T18:24:23.247Z,31.98
2022-10-30T18:26:50.184Z,36.08
2022-10-30T18:29:17.186Z,36.90
2022-10-30T18:31:44.014Z,38.95
2022-10-30T18:34:18.257Z,37.17
2022-10-30T18:36:45.119Z,33.80
2022-10-30T18:39:12.994Z,42.47
2022-10-30T18:41:46.143Z,36.10
2022-10-30T18:44:17.857Z,37.33
2022-10-30T18:46:45.555Z,40.25
2022-10-30T18:49:12.458Z,38.90
2022-10-30T18:51:40.235Z,43.40
2022-10-30T18:54:16.996Z,38.30
2022-10-30T18:56:44.318Z,39.42
2022-10-30T18:59:11.475Z,43.33
2022-10-30T19:01:38.690Z,41.30
2022-10-30T19:04:19.303Z,38.45
2022-10-30T19:06:48.872Z,42.33
2022-10-30T19:09:15.655Z,36.22
2022-10-30T19:11:44.512Z,37.72
2022-10-30T19:14:13.733Z,39.20
2022-10-30T19:16:40.753Z,42.92
2022-10-30T19:19:07.714Z,33.67
2022-10-30T19:21:40.699Z,42.92
2022-10-30T19:24:14.968Z,38.60
2022-10-30T19:26:41.803Z,41.13
2022-10-30T19:29:08.627Z,37.53
2022-10-30T19:31:35.458Z,49.75
2022-10-30T19:34:02.261Z,44.03
2022-10-30T19:36:36.375Z,46.58
2022-10-30T19:39:11.300Z,42.38
2022-10-30T19:41:39.860Z,46.35
2022-10-30T19:44:06.767Z,41.40
2022-10-30T19:46:34.215Z,44.85
2022-10-30T19:49:17.413Z,40.17
2022-10-30T19:51:44.290Z,47.65
2022-10-30T19:54:11.367Z,45.85
2022-10-30T19:56:38.453Z,49.15
2022-10-30T19:59:11.616Z,43.70
2022-10-30T20:01:38.739Z,42.92
2022-10-30T20:04:05.675Z,42.75
2022-10-30T20:06:32.571Z,42.63
2022-10-30T20:09:02.432Z,42.50
2022-10-30T20:11:31.806Z,44.55
2022-10-30T20:13:58.598Z,43.85
2022-10-30T20:16:25.492Z,46.05
2022-10-30T20:18:52.318Z,50.17
2022-10-30T20:21:19.699Z,40.10
2022-10-30T20:23:46.828Z,43.25
2022-10-30T20:26:28.005Z,42.22
2022-10-30T20:28:55.666Z,43.63
2022-10-30T20:31:22.618Z,43.33
2022-10-30T20:33:49.479Z,40.60
2022-10-30T20:36:16.421Z,39.58
2022-10-30T20:38:43.673Z,44.33
2022-10-30T20:41:27.007Z,46.08
2022-10-30T20:43:54.073Z,37.72
2022-10-30T20:46:21.764Z,43.42
2022-10-30T20:48:49.203Z,39.88
2022-10-30T20:51:16.128Z,44.45
2022-10-30T20:53:43.076Z,45.15
2022-10-30T20:56:11.656Z,41.20
2022-10-30T20:58:38.806Z,51.03
2022-10-30T21:01:06.091Z,39.30
2022-10-30T21:03:33.159Z,40.13
2022-10-30T21:06:02.115Z,47.83
2022-10-30T21:08:34.107Z,46.20
2022-10-30T21:11:03.207Z,47.28
2022-10-30T21:13:31.032Z,43.45
2022-10-30T21:16:05.016Z,45.72
2022-10-30T21:18:32.403Z,45.97
2022-10-30T21:21:11.364Z,41.60
2022-10-30T21:23:38.312Z,39.67
2022-10-30T21:26:09.623Z,39.13
2022-10-30T21:28:36.464Z,42.38
2022-10-30T21:31:07.041Z,43.05
2022-10-30T21:33:36.157Z,42.55
2022-10-30T21:36:14.415Z,42.05
2022-10-30T21:38:44.239Z,41.75
2022-10-30T21:41:14.946Z,41.25
2022-10-30T21:43:42.625Z,41.92
2022-10-30T21:46:12.460Z,45.90
2022-10-30T21:48:39.592Z,42.00
2022-10-30T21:51:16.675Z,44.72
2022-10-30T21:53:46.432Z,35.47
2022-10-30T21:56:20.167Z,40.78
2022-10-30T21:58:48.274Z,40.22
2022-10-30T22:01:25.703Z,43.92
2022-10-30T22:03:52.802Z,34.53
2022-10-30T22:06:22.579Z,35.13
2022-10-30T22:08:53.196Z,38.83
2022-10-30T22:11:22.376Z,44.25
2022-10-30T22:13:58.910Z,41.10
2022-10-30T22:16:28.847Z,44.83
2022-10-30T22:18:56.942Z,42.60
2022-10-30T22:21:24.473Z,41.75
2022-10-30T22:23:51.519Z,41.30
2022-10-30T22:26:22.126Z,46.10
2022-10-30T22:28:54.071Z,46.92
2022-10-30T22:31:23.214Z,48.08
2022-10-30T22:33:50.590Z,47.72
2022-10-30T22:36:22.994Z,48.40
2022-10-30T22:41:54.121Z,47.80
2022-10-30T22:44:22.928Z,53.13
2022-10-30T22:46:49.861Z,52.63
2022-10-30T22:49:16.757Z,53.20
2022-10-30T22:51:43.648Z,52.28
2022-10-30T22:54:12.404Z,54.22
2022-10-30T22:56:41.469Z,54.42
2022-10-30T22:59:13.092Z,48.75
2022-10-30T23:01:41.708Z,62.78
2022-10-30T23:04:11.918Z,49.00
2022-10-30T23:06:38.929Z,57.67
2022-10-30T23:09:15.618Z,57.08
2022-10-30T23:11:42.587Z,57.40
2022-10-30T23:14:09.419Z,49.50
2022-10-30T23:16:36.412Z,53.30
2022-10-30T23:19:03.382Z,55.15
2022-10-30T23:21:31.951Z,48.00
2022-10-30T23:24:01.570Z,48.53
2022-10-30T23:26:34.417Z,45.03
2022-10-30T23:29:03.128Z,42.45
2022-10-30T23:31:39.340Z,51.35
2022-10-30T23:34:10.699Z,45.13
2022-10-30T23:36:38.402Z,49.90
2022-10-30T23:39:13.856Z,49.92
2022-10-30T23:41:41.487Z,46.65
2022-10-30T23:44:13.642Z,46.25
2022-10-30T23:46:40.896Z,47.03
2022-10-30T23:49:08.170Z,44.83
2022-10-30T23:51:35.222Z,46.70
2022-10-30T23:54:02.392Z,44.72
2022-10-30T23:56:39.140Z,41.75
2022-10-30T23:59:09.652Z,48.22
